Time;durP1;ratioP1;P1;durP2;ratioP2;P2;SDS_P1;SDS_P2;PMS_P1;PMS_P2;Temp;Humidity;BMP_temperature;BMP_pressure;BME280_temperature;BME280_humidity;BME280_pressure;Samples;Min_cycle;Max_cycle;Signal;HPM_P1;HPM_P2
2022/03/14 00:04:50;;;;;;;;;;;3.80;99.90;;;2.71;53.26;95628.72;10521226;28;1815;-76
2022/03/14 00:10:03;;;;;;;;;;;3.80;99.90;;;2.81;53.17;95645.97;10517007;28;1981;-75
2022/03/14 00:15:11;;;;;;;;;;;3.80;99.90;;;2.66;53.19;95657.78;10520096;28;2009;-76
2022/03/14 00:20:14;;;;;;;;;;;3.80;99.90;;;2.63;53.71;95655.59;10522696;28;1780;-76
2022/03/14 00:25:18;;;;;;;;;;;3.80;99.90;;;2.50;54.33;95666.41;10506500;28;1855;-75
2022/03/14 00:30:21;;;;;;;;;;;3.80;99.90;;;2.46;55.04;95683.78;10503391;28;1975;-76
2022/03/14 00:35:25;;;;;;;;;;;3.60;99.90;;;2.46;54.61;95686.44;10510950;28;1887;-76
2022/03/14 00:40:28;;;;;;;;;;;3.50;99.90;;;2.57;55.03;95698.97;10506429;28;1718;-75
2022/03/14 00:45:33;;;;;;;;;;;3.60;99.90;;;2.58;54.60;95708.53;10503115;28;1882;-75
2022/03/14 00:50:36;;;;;;;;;;;3.70;99.90;;;2.60;55.08;95698.50;10529954;28;1970;-76
2022/03/14 00:55:39;;;;;;;;;;;3.70;99.90;;;2.52;55.78;95701.47;10527096;28;1802;-76
2022/03/14 01:00:43;;;;;;;;;;;3.60;99.90;;;2.49;55.90;95701.94;10528080;28;1866;-76
2022/03/14 01:05:46;;;;;;;;;;;3.60;99.90;;;2.41;56.36;95699.56;10508778;28;1920;-76
2022/03/14 01:10:50;;;;;;;;;;;3.50;99.90;;;2.40;56.85;95708.56;10511174;28;1910;-76
2022/03/14 01:15:54;;;;;;;;;;;3.50;99.90;;;2.43;56.71;95713.44;10524306;28;1868;-75
2022/03/14 01:20:57;;;;;;;;;;;3.40;99.90;;;2.39;57.68;95726.34;10526208;28;1834;-76
2022/03/14 01:26:01;;;;;;;;;;;3.50;99.90;;;2.40;57.22;95740.41;10512087;28;1929;-75
2022/03/14 01:31:05;;;;;;;;;;;3.40;99.90;;;2.37;57.95;95746.16;10506323;28;1911;-75
2022/03/14 01:36:08;;;;;;;;;;;3.40;99.90;;;2.34;57.75;95749.25;10515380;28;1866;-75
2022/03/14 01:41:12;;;;;;;;;;;3.40;99.90;;;2.38;58.59;95769.00;10505839;28;1897;-75
2022/03/14 01:46:16;;;;;;;;;;;3.40;99.90;;;2.33;58.34;95764.34;10506426;28;1783;-74
2022/03/14 01:51:22;;;;;;;;;;;3.40;99.90;;;2.31;59.36;95765.63;10507482;28;2211;-74
2022/03/14 02:01:38;;;;;;;;;;;3.40;99.90;;;2.42;59.44;95786.13;10509238;22;3599;-68
2022/03/14 02:06:41;;;;;;;;;;;3.30;99.90;;;2.53;59.39;95788.00;10517960;28;2004;-71
2022/03/14 02:11:45;;;;;;;;;;;3.40;99.90;;;2.70;59.34;95789.03;10504798;28;2048;-67
2022/03/14 02:16:55;;;;;;;;;;;3.50;99.90;;;3.17;55.87;95813.09;10479499;28;1959;-70
2022/03/14 02:22:18;;;;;;;;;;;3.80;99.90;;;3.13;56.54;95838.50;10489763;28;2094;-68
2022/03/14 02:27:31;;;;;;;;;;;4.00;99.90;;;3.18;56.25;95864.38;10486430;28;1950;-69
2022/03/14 02:32:41;;;;;;;;;;;4.00;99.90;;;3.37;55.49;95867.81;10488826;28;1959;-70
2022/03/14 02:37:45;;;;;;;;;;;4.10;99.90;;;3.48;55.11;95872.34;10475738;28;1944;-70
2022/03/14 02:42:48;;;;;;;;;;;4.30;99.90;;;3.61;54.80;95864.19;10497614;28;2010;-72
2022/03/14 02:47:51;;;;;;;;;;;4.30;99.90;;;3.74;55.37;95871.94;10490699;28;2075;-70
2022/03/14 02:52:54;;;;;;;;;;;4.40;99.90;;;3.88;54.60;95879.72;10493737;28;2299;-70
2022/03/14 02:57:59;;;;;;;;;;;4.50;99.90;;;4.11;53.36;95885.09;10463937;28;1942;-69
2022/03/14 03:03:02;;;;;;;;;;;4.80;99.90;;;4.54;52.43;95900.72;10487673;28;2045;-70
2022/03/14 03:08:06;;;;;;;;;;;5.10;99.90;;;5.30;49.88;95906.84;10465178;28;1898;-69
2022/03/14 03:13:09;;;;;;;;;;;5.60;99.90;;;5.93;49.69;95913.91;10486947;28;2353;-69
2022/03/14 03:18:13;;;;;;;;;;;6.30;99.90;;;6.40;49.94;95926.13;10488714;28;2030;-69
2022/03/14 03:23:16;;;;;;;;;;;6.80;99.90;;;6.50;49.83;95935.13;10469564;28;1949;-70
2022/03/14 03:28:20;;;;;;;;;;;7.20;99.90;;;6.59;50.66;95959.53;10466470;28;1955;-69
2022/03/14 03:33:23;;;;;;;;;;;7.30;99.90;;;6.71;51.03;95968.28;10470170;28;1996;-69
2022/03/14 03:38:26;;;;;;;;;;;7.50;99.90;;;6.78;52.01;95984.94;10465155;28;2151;-68
2022/03/14 03:43:29;;;;;;;;;;;7.60;99.90;;;6.88;52.89;95994.19;10469382;28;1978;-71
2022/03/14 03:48:33;;;;;;;;;;;7.70;99.90;;;6.95;54.40;96010.88;10485563;28;2476;-70
2022/03/14 03:53:36;;;;;;;;;;;7.70;99.90;;;7.00;55.65;96025.13;10464416;28;2098;-69
2022/03/14 03:58:39;;;;;;;;;;;7.80;99.90;;;7.08;56.59;96031.91;10466164;28;1848;-69
2022/03/14 04:03:42;;;;;;;;;;;7.90;99.90;;;7.16;58.22;96060.09;10485654;28;1923;-69
2022/03/14 04:08:46;;;;;;;;;;;7.90;99.90;;;7.11;59.86;96062.69;10487186;28;2324;-68
2022/03/14 04:13:50;;;;;;;;;;;8.10;99.90;;;7.23;61.00;96082.13;10467318;28;2054;-69
2022/03/14 04:18:53;;;;;;;;;;;8.10;99.90;;;7.08;62.87;96079.22;10490828;28;1995;-70
2022/03/14 04:23:57;;;;;;;;;;;8.00;99.90;;;7.04;64.27;96106.41;10473117;28;1991;-71
2022/03/14 04:29:01;;;;;;;;;;;8.00;99.90;;;7.18;65.23;96116.78;10495312;28;2048;-69
2022/03/14 04:34:06;;;;;;;;;;;8.00;99.90;;;7.09;66.20;96128.94;10498087;28;2114;-71
2022/03/14 04:39:09;;;;;;;;;;;8.00;99.90;;;6.96;66.78;96141.56;10485357;28;2005;-69
2022/03/14 04:44:12;;;;;;;;;;;8.00;99.90;;;6.88;68.17;96141.97;10497363;28;1960;-69
2022/03/14 04:49:16;;;;;;;;;;;7.90;99.90;;;6.89;68.64;96156.16;10489358;28;1962;-70
2022/03/14 04:54:19;;;;;;;;;;;7.90;99.90;;;6.73;69.16;96179.91;10493645;28;1938;-69
2022/03/14 04:59:22;;;;;;;;;;;7.70;99.90;;;6.54;70.39;96196.34;10471474;28;1997;-70
2022/03/14 05:04:26;;;;;;;;;;;7.60;99.90;;;6.41;70.86;96211.59;10479709;28;2428;-71
2022/03/14 05:09:29;;;;;;;;;;;7.50;99.90;;;6.25;72.39;96231.03;10500196;28;2434;-71
2022/03/14 05:14:32;;;;;;;;;;;7.40;99.90;;;6.29;73.58;96236.72;10522785;28;1951;-70
2022/03/14 05:19:35;;;;;;;;;;;7.20;99.90;;;6.29;74.94;96240.19;10518796;28;1755;-71
2022/03/14 05:24:43;;;;;;;;;;;7.20;99.90;;;6.43;75.27;96260.25;10515537;28;1930;-70
2022/03/14 05:29:46;;;;;;;;;;;7.40;99.90;;;6.58;76.10;96258.94;10478428;28;1914;-71
2022/03/14 05:34:49;;;;;;;;;;;7.40;99.90;;;6.78;76.06;96270.03;10471280;28;1940;-69
2022/03/14 05:39:53;;;;;;;;;;;7.40;99.90;;;6.90;76.25;96270.81;10500829;28;1920;-69
2022/03/14 05:44:56;;;;;;;;;;;7.70;99.90;;;7.00;77.18;96291.59;10471931;28;2002;-69
2022/03/14 05:49:59;;;;;;;;;;;7.80;99.90;;;7.05;77.21;96295.16;10472613;28;1983;-71
2022/03/14 05:55:02;;;;;;;;;;;7.90;99.90;;;7.17;77.03;96318.38;10477012;28;1955;-69
2022/03/14 06:00:06;;;;;;;;;;;8.00;99.90;;;7.26;77.18;96322.28;10488295;28;1969;-70
2022/03/14 06:05:08;;;;;;;;;;;8.00;99.90;;;7.38;77.64;96327.56;10478493;28;1964;-69
2022/03/14 06:10:11;;;;;;;;;;;8.20;99.90;;;7.44;77.91;96335.44;10486381;28;2003;-68
2022/03/14 06:15:16;;;;;;;;;;;8.20;99.90;;;7.59;78.00;96349.13;10480824;28;2060;-69
2022/03/14 06:20:19;;;;;;;;;;;8.30;99.90;;;7.59;78.73;96359.81;10478311;28;2351;-69
2022/03/14 06:25:22;;;;;;;;;;;8.40;99.90;;;7.75;78.57;96378.81;10483409;28;1967;-70
2022/03/14 06:30:27;;;;;;;;;;;8.50;99.90;;;7.85;78.30;96366.44;10490172;28;1918;-71
2022/03/14 06:35:30;;;;;;;;;;;8.60;99.90;;;7.95;78.34;96387.22;10474125;28;1898;-70
2022/03/14 06:40:33;;;;;;;;;;;8.70;99.90;;;8.35;76.76;96397.81;10488285;28;1981;-69
2022/03/14 06:45:38;;;;;;;;;;;8.80;99.90;;;8.32;76.26;96405.47;10479223;28;2063;-70
2022/03/14 06:50:41;;;;;;;;;;;9.10;99.90;;;8.25;76.71;96400.28;10488901;28;2028;-71
2022/03/14 06:55:44;;;;;;;;;;;9.30;99.90;;;8.18;77.01;96405.00;10485148;28;1918;-69
2022/03/14 07:00:47;;;;;;;;;;;9.20;99.90;;;8.15;77.20;96412.72;10484102;28;1786;-70
2022/03/14 07:05:51;;;;;;;;;;;9.00;99.90;;;8.20;77.24;96412.78;10465621;28;1838;-70
2022/03/14 07:10:55;;;;;;;;;;;9.00;99.90;;;8.30;76.15;96415.63;10488120;28;1918;-71
2022/03/14 07:15:58;;;;;;;;;;;9.10;99.90;;;8.40;74.77;96431.91;10469011;28;1870;-70
2022/03/14 07:21:01;;;;;;;;;;;9.10;99.90;;;8.63;72.74;96429.03;10490016;28;2032;-69
2022/03/14 07:26:05;;;;;;;;;;;9.30;99.90;;;8.89;71.08;96440.94;10464045;28;2339;-70
2022/03/14 07:31:09;;;;;;;;;;;9.50;99.90;;;9.45;68.97;96440.88;10474654;28;1905;-73
2022/03/14 07:36:14;;;;;;;;;;;9.80;99.90;;;9.49;67.75;96447.38;10482442;28;1876;-70
2022/03/14 07:41:18;;;;;;;;;;;10.10;99.90;;;9.30;67.86;96459.50;10463625;28;2098;-70
2022/03/14 07:46:21;;;;;;;;;;;10.10;99.90;;;9.50;66.84;96465.13;10482221;28;1948;-71
2022/03/14 07:51:24;;;;;;;;;;;10.20;99.90;;;9.53;66.84;96479.91;10488454;28;1916;-70
2022/03/14 07:56:27;;;;;;;;;;;10.20;99.90;;;9.55;66.86;96483.16;10465474;28;1906;-71
2022/03/14 08:01:30;;;;;;;;;;;10.40;99.90;;;9.22;68.16;96495.56;10517267;22;2115;-75
2022/03/14 08:06:41;;;;;;;;;;;10.10;99.90;;;9.28;67.62;96502.63;10522156;28;2047;-74
2022/03/14 08:11:44;;;;;;;;;;;10.00;99.90;;;9.74;64.72;96497.88;10518975;28;1969;-73
2022/03/14 08:16:48;;;;;;;;;;;10.30;99.90;;;9.93;62.18;96509.13;10530442;28;1628;-73
2022/03/14 08:21:51;;;;;;;;;;;10.50;99.90;;;10.14;60.77;96516.34;10521038;28;1706;-73
2022/03/14 08:26:54;;;;;;;;;;;10.80;99.90;;;10.82;58.18;96517.56;10547763;28;1816;-74
2022/03/14 08:31:58;;;;;;;;;;;11.10;99.90;;;11.08;56.76;96523.13;10559633;27;1953;-74
2022/03/14 08:37:01;;;;;;;;;;;;;;;11.36;53.64;96519.25;10540860;28;1882;-73
2022/03/14 08:42:05;;;;;;;;;;;;;;;10.98;55.81;96533.78;10551375;27;2349;-73
2022/03/14 08:47:08;;;;;;;;;;;;;;;11.28;54.78;96543.97;10545128;28;2015;-74
2022/03/14 08:52:12;;;;;;;;;;;;;;;11.15;55.14;96547.94;10529489;28;1992;-75
2022/03/14 08:57:16;;;;;;;;;;;12.00;99.90;;;11.00;55.32;96553.16;10523945;28;1804;-74
2022/03/14 09:02:20;;;;;;;;;;;11.60;99.90;;;10.92;55.16;96551.78;10511619;28;1967;-75
2022/03/14 09:07:23;;;;;;;;;;;11.60;99.90;;;11.10;54.85;96556.75;10532705;28;2085;-74
2022/03/14 09:12:28;;;;;;;;;;;11.70;99.90;;;11.30;54.31;96558.78;10534124;28;1928;-74
2022/03/14 09:17:32;;;;;;;;;;;11.80;99.90;;;11.21;54.77;96560.34;10533693;28;1947;-75
2022/03/14 09:22:36;;;;;;;;;;;11.80;99.90;;;11.20;53.99;96569.50;10534222;28;1979;-74
2022/03/14 09:27:41;;;;;;;;;;;11.80;99.90;;;11.26;54.50;96567.63;10513410;28;1893;-74
2022/03/14 09:32:45;;;;;;;;;;;11.90;99.90;;;11.57;53.33;96569.47;10531103;28;1917;-74
2022/03/14 09:37:49;;;;;;;;;;;12.10;99.90;;;11.84;52.82;96577.47;10508004;28;1842;-73
2022/03/14 09:42:52;;;;;;;;;;;12.40;99.90;;;12.07;52.14;96583.47;10528032;28;1839;-73
2022/03/14 09:47:55;;;;;;;;;;;12.50;99.90;;;11.73;52.84;96575.75;10522331;28;2081;-75
2022/03/14 09:52:59;;;;;;;;;;;12.40;99.90;;;11.89;52.03;96577.47;10523610;28;1913;-75
2022/03/14 09:58:03;;;;;;;;;;;12.40;99.90;;;11.93;51.59;96579.66;10510461;28;1880;-75
2022/03/14 10:03:07;;;;;;;;;;;12.60;99.90;;;11.83;52.22;96578.53;10520706;28;1803;-75
2022/03/14 10:08:11;;;;;;;;;;;12.50;99.90;;;11.92;52.26;96588.81;10569333;27;1846;-75
2022/03/14 10:13:15;;;;;;;;;;;12.40;99.90;;;11.79;52.25;96596.25;10558616;28;1960;-73
2022/03/14 10:18:19;;;;;;;;;;;12.40;99.90;;;11.88;51.77;96586.63;10560501;28;2150;-75
2022/03/14 10:23:23;;;;;;;;;;;12.50;99.90;;;12.11;51.09;96592.69;10521528;28;1830;-75
2022/03/14 10:28:26;;;;;;;;;;;12.80;99.90;;;12.21;50.71;96592.69;10521233;28;1772;-76
2022/03/14 10:33:31;;;;;;;;;;;;;;;12.63;49.70;96587.19;10510907;28;1914;-75
2022/03/14 10:38:34;;;;;;;;;;;;;;;12.32;48.33;96596.25;10531764;28;1872;-73
2022/03/14 10:43:42;;;;;;;;;;;;;;;12.08;49.55;96598.56;10537715;27;1931;-75
2022/03/14 10:48:46;;;;;;;;;;;;;;;12.34;50.03;96597.63;10511137;28;1841;-75
2022/03/14 10:53:49;;;;;;;;;;;;;;;12.55;48.77;96603.09;10508411;28;1914;-74
2022/03/14 10:58:53;;;;;;;;;;;;;;;12.66;48.69;96602.00;10521267;28;2069;-73
2022/03/14 11:03:56;;;;;;;;;;;;;;;13.03;47.77;96603.69;10501660;28;1828;-74
2022/03/14 11:09:00;;;;;;;;;;;;;;;12.75;49.20;96613.09;10503225;28;1930;-75
2022/03/14 11:14:04;;;;;;;;;;;;;;;12.55;48.60;96606.59;10526786;28;1995;-73
2022/03/14 11:19:09;;;;;;;;;;;;;;;12.69;48.63;96602.28;10504297;28;2055;-74
2022/03/14 11:24:13;;;;;;;;;;;;;;;12.47;48.11;96614.34;10520099;28;2314;-75
2022/03/14 11:29:16;;;;;;;;;;;;;;;12.67;47.90;96609.06;10499219;28;1863;-74
2022/03/14 11:34:21;;;;;;;;;;;;;;;12.50;47.60;96597.66;10505256;28;1983;-74
2022/03/14 11:39:24;;;;;;;;;;;;;;;12.35;47.77;96591.16;10520717;28;1858;-75
2022/03/14 11:44:28;;;;;;;;;;;;;;;12.50;47.41;96593.09;10503335;28;1822;-75
2022/03/14 11:49:32;;;;;;;;;;;13.20;99.90;;;12.51;47.58;96588.50;10502492;28;1952;-74
2022/03/14 11:54:36;;;;;;;;;;;13.30;97.70;;;12.99;46.09;96601.53;10509292;28;1923;-75
2022/03/14 11:59:39;;;;;;;;;;;13.60;97.10;;;13.12;45.16;96602.09;10505756;28;1846;-72
2022/03/14 12:04:41;;;;;;;;;;;13.90;95.90;;;13.27;45.08;96583.22;10519808;28;1798;-71
2022/03/14 12:09:48;;;;;;;;;;;14.10;95.60;;;13.13;45.00;96593.72;10521355;28;1748;-71
2022/03/14 12:14:57;;;;;;;;;;;14.00;95.10;;;13.06;45.26;96592.38;10499630;28;1908;-70
2022/03/14 12:20:00;;;;;;;;;;;14.00;95.10;;;13.22;44.31;96594.00;10510622;28;1928;-70
2022/03/14 12:25:04;;;;;;;;;;;14.00;94.50;;;13.20;44.32;96597.00;10510668;28;1832;-72
2022/03/14 12:30:07;;;;;;;;;;;14.10;93.90;;;13.50;42.68;96585.38;10508824;28;1809;-71
2022/03/14 12:35:10;;;;;;;;;;;14.10;93.60;;;13.08;43.19;96587.50;10525433;28;2436;-70
2022/03/14 12:40:13;;;;;;;;;;;14.10;92.70;;;13.33;43.76;96576.75;10515164;28;1863;-70
2022/03/14 12:45:16;;;;;;;;;;;14.10;93.30;;;13.56;42.53;96572.66;10513891;28;1999;-70
2022/03/14 12:50:21;;;;;;;;;;;14.30;92.80;;;13.65;43.09;96578.31;10525003;28;1864;-72
2022/03/14 12:55:24;;;;;;;;;;;14.40;92.70;;;13.69;42.38;96574.00;10532215;28;2211;-71
2022/03/14 13:00:28;;;;;;;;;;;14.50;92.20;;;13.70;42.03;96576.41;10547518;27;1787;-70
2022/03/14 13:05:54;;;;;;;;;;;14.70;91.70;;;13.54;41.91;96580.22;10535049;28;2125;-71
2022/03/14 13:10:58;;;;;;;;;;;14.50;91.00;;;13.49;42.48;96572.94;10515447;28;1932;-73
2022/03/14 13:16:01;;;;;;;;;;;14.40;91.30;;;13.37;42.59;96569.72;10532656;28;1914;-70
2022/03/14 13:21:05;;;;;;;;;;;14.40;91.40;;;13.44;41.19;96564.84;10534572;28;1677;-71
2022/03/14 13:26:08;;;;;;;;;;;14.30;90.90;;;13.40;42.06;96554.84;10548870;27;1791;-72
2022/03/14 13:31:14;;;;;;;;;;;14.30;91.30;;;13.45;42.48;96555.66;10530865;28;1998;-72
2022/03/14 13:36:17;;;;;;;;;;;14.30;91.30;;;13.39;42.19;96551.34;10522600;28;1914;-71
2022/03/14 13:41:21;;;;;;;;;;;14.30;91.10;;;13.52;41.75;96548.09;10527158;28;1819;-71
2022/03/14 13:46:24;;;;;;;;;;;14.30;91.00;;;13.66;41.87;96544.81;10523537;28;1911;-71
2022/03/14 13:51:31;;;;;;;;;;;14.40;90.60;;;13.86;41.09;96552.84;10507722;28;1833;-71
2022/03/14 13:56:34;;;;;;;;;;;14.60;90.70;;;13.71;41.10;96542.09;10524322;28;1990;-70
2022/03/14 14:01:46;;;;;;;;;;;14.70;90.10;;;13.66;40.43;96550.22;10504607;28;2002;-71
2022/03/14 14:06:50;;;;;;;;;;;14.60;89.40;;;13.60;41.14;96551.31;10526377;28;1847;-71
2022/03/14 14:11:53;;;;;;;;;;;14.60;89.30;;;13.49;40.15;96550.53;10510157;28;1918;-70
2022/03/14 14:34:12;;;;;;;;;;;14.30;88.90;;;12.99;41.26;96552.97;10530825;28;1999;-70
2022/03/14 14:45:00;;;;;;;;;;;14.00;89.20;;;13.14;41.48;96570.22;10500986;28;2384;-70
2022/03/14 14:50:03;;;;;;;;;;;14.00;89.60;;;13.31;40.06;96564.59;10534525;28;2333;-69
2022/03/14 14:55:06;;;;;;;;;;;14.10;88.70;;;13.18;40.60;96574.84;10520943;28;1980;-70
2022/03/14 15:00:10;;;;;;;;;;;14.10;88.50;;;13.11;40.91;96587.78;10494087;28;2017;-68
2022/03/14 15:05:13;;;;;;;;;;;14.00;99.90;;;13.11;41.19;96589.69;10526169;28;2113;-70
2022/03/14 15:10:16;;;;;;;;;;;14.00;99.90;;;13.02;40.95;96585.88;10510857;28;2003;-68
2022/03/14 15:15:19;;;;;;;;;;;13.90;99.90;;;13.11;39.98;96576.19;10496064;28;1965;-72
2022/03/14 15:20:22;;;;;;;;;;;13.80;99.90;;;13.24;38.91;96583.78;10515069;28;2149;-71
2022/03/14 15:25:25;;;;;;;;;;;14.00;99.90;;;13.20;39.30;96585.34;10500224;28;2046;-69
2022/03/14 15:30:28;;;;;;;;;;;14.00;99.90;;;13.03;39.64;96584.81;10501436;28;1960;-69
2022/03/14 15:35:31;;;;;;;;;;;14.00;99.90;;;13.05;39.53;96588.06;10493510;28;2012;-73
2022/03/14 15:40:34;;;;;;;;;;;13.90;99.90;;;12.89;39.24;96579.13;10515800;28;2088;-70
2022/03/14 15:45:38;;;;;;;;;;;13.80;99.90;;;12.85;39.55;96578.88;10518449;28;2261;-69
2022/03/14 15:50:41;;;;;;;;;;;13.80;99.90;;;12.83;38.97;96578.31;10508922;28;2182;-72
2022/03/14 15:55:45;;;;;;;;;;;13.80;99.90;;;12.93;38.54;96575.63;10503124;28;2050;-70
2022/03/14 16:00:48;;;;;;;;;;;;;;;12.90;38.03;96581.56;10499709;28;2032;-69
2022/03/14 16:05:52;;;;;;;;;;;;;;;12.92;37.84;96582.13;10518663;28;1987;-68
2022/03/14 16:10:55;;;;;;;;;;;13.80;99.90;;;12.87;38.40;96587.50;10493549;28;2051;-70
2022/03/14 16:15:58;;;;;;;;;;;13.30;99.90;;;12.86;37.24;96595.88;10488628;28;1987;-69
2022/03/14 16:21:03;;;;;;;;;;;;;;;12.76;38.28;96590.44;10550425;28;1877;-70
2022/03/14 16:26:06;;;;;;;;;;;13.70;99.90;;;12.65;37.93;96600.38;10543235;28;1862;-71
2022/03/14 16:31:16;;;;;;;;;;;;;;;12.22;39.20;96591.66;10544516;28;1872;-71
2022/03/14 16:36:21;;;;;;;;;;;13.30;99.90;;;12.35;37.96;96612.72;10531171;28;1997;-69
2022/03/14 16:41:25;;;;;;;;;;;;;;;12.30;38.25;96618.09;10540291;28;2168;-72
2022/03/14 16:46:28;;;;;;;;;;;13.30;99.90;;;12.17;38.26;96621.28;10523077;28;1940;-71
2022/03/14 16:51:32;;;;;;;;;;;13.20;99.70;;;11.94;39.91;96621.69;10511241;28;1877;-71
2022/03/14 16:56:35;;;;;;;;;;;13.00;84.90;;;11.69;39.85;96636.59;10494289;28;1910;-72
2022/03/14 17:01:38;;;;;;;;;;;12.90;85.10;;;11.61;40.28;96632.50;10498289;28;1867;-71
2022/03/14 17:06:42;;;;;;;;;;;12.80;85.40;;;11.43;40.43;96651.75;10504325;28;1847;-70
2022/03/14 17:11:45;;;;;;;;;;;12.70;85.70;;;11.14;41.07;96653.94;10517142;28;2191;-70
2022/03/14 17:16:49;;;;;;;;;;;12.40;85.90;;;11.24;40.70;96651.31;10489153;28;2122;-71
2022/03/14 17:21:53;;;;;;;;;;;12.50;85.80;;;11.07;40.95;96661.41;10526459;28;1759;-70
2022/03/14 17:26:56;;;;;;;;;;;12.40;85.70;;;10.77;41.58;96661.91;10513417;28;1997;-70
2022/03/14 17:32:00;;;;;;;;;;;12.10;85.90;;;10.71;41.60;96671.00;10499108;28;1867;-70
2022/03/14 17:37:04;;;;;;;;;;;12.00;86.10;;;10.57;42.21;96677.81;10522035;28;1992;-70
2022/03/14 17:42:07;;;;;;;;;;;11.80;86.50;;;10.45;41.96;96681.44;10519720;28;1785;-70
2022/03/14 17:47:10;;;;;;;;;;;11.70;86.80;;;10.33;42.49;96688.00;10513001;28;1806;-69
2022/03/14 17:52:13;;;;;;;;;;;11.50;87.00;;;10.11;43.76;96686.06;10522856;28;1798;-70
2022/03/14 17:57:16;;;;;;;;;;;11.40;87.70;;;9.85;44.24;96687.59;10495587;28;1914;-69
2022/03/14 18:02:20;;;;;;;;;;;11.20;88.30;;;9.82;44.88;96687.28;10501825;28;2022;-70
2022/03/14 18:07:23;;;;;;;;;;;11.00;88.80;;;9.58;45.21;96698.19;10556652;28;1822;-70
2022/03/14 18:12:28;;;;;;;;;;;10.90;89.20;;;9.34;46.00;96707.44;10540179;28;1785;-68
2022/03/14 18:17:32;;;;;;;;;;;10.70;89.80;;;9.41;46.22;96710.78;10520247;28;1914;-69
2022/03/14 18:22:36;;;;;;;;;;;10.60;90.10;;;9.28;46.60;96713.78;10509040;28;1827;-70
2022/03/14 18:27:39;;;;;;;;;;;10.50;90.60;;;9.11;46.91;96717.28;10501294;28;2227;-70
2022/03/14 18:32:42;;;;;;;;;;;10.40;90.70;;;9.11;46.63;96719.94;10515275;28;1857;-68
2022/03/14 18:37:45;;;;;;;;;;;10.30;91.00;;;8.91;48.18;96730.31;10496187;28;2235;-69
2022/03/14 18:42:48;;;;;;;;;;;10.20;91.70;;;9.14;47.63;96719.44;10528949;28;1873;-72
2022/03/14 18:47:52;;;;;;;;;;;10.10;92.00;;;8.99;48.21;96726.41;10527038;28;1814;-69
2022/03/14 18:52:55;;;;;;;;;;;10.00;92.50;;;8.99;47.89;96727.22;10492609;28;1839;-70
2022/03/14 18:57:58;;;;;;;;;;;10.00;92.20;;;8.96;48.03;96727.69;10517268;28;1987;-69
2022/03/14 19:03:01;;;;;;;;;;;10.00;92.20;;;8.93;48.19;96739.72;10510265;28;1821;-71
2022/03/14 19:08:06;;;;;;;;;;;10.00;92.40;;;8.77;48.74;96750.38;10514378;28;1852;-70
2022/03/14 19:13:09;;;;;;;;;;;9.90;92.70;;;8.66;48.66;96750.19;10511846;28;1913;-71
2022/03/14 19:18:12;;;;;;;;;;;9.80;92.90;;;8.39;50.09;96762.47;10525831;28;1789;-71
2022/03/14 19:23:16;;;;;;;;;;;9.70;93.40;;;8.17;50.81;96761.44;10504731;28;1808;-69
2022/03/14 19:28:21;;;;;;;;;;;9.50;93.80;;;8.06;50.60;96766.53;10512702;28;1959;-70
2022/03/14 19:33:24;;;;;;;;;;;9.30;94.10;;;8.15;50.54;96764.34;10511967;28;1959;-69
2022/03/14 19:38:27;;;;;;;;;;;9.30;94.60;;;8.10;50.63;96759.69;10501497;28;1812;-70
2022/03/14 19:43:30;;;;;;;;;;;9.20;94.90;;;8.07;50.95;96762.81;10486122;28;2002;-72
2022/03/14 19:48:34;;;;;;;;;;;9.10;95.10;;;8.00;50.85;96762.13;10519299;28;1803;-70
2022/03/14 19:53:38;;;;;;;;;;;9.10;95.20;;;7.76;52.06;96761.31;10504150;28;1980;-68
2022/03/14 19:58:43;;;;;;;;;;;9.00;95.40;;;7.89;51.61;96760.28;10513737;28;1898;-71
2022/03/14 20:03:48;;;;;;;;;;;8.90;95.70;;;7.85;51.50;96761.78;10487332;28;1825;-71
2022/03/14 20:08:52;;;;;;;;;;;8.90;95.60;;;7.96;51.24;96765.50;10510096;28;1913;-70
2022/03/14 20:13:56;;;;;;;;;;;9.00;95.40;;;7.89;51.71;96767.47;10510444;28;1980;-72
2022/03/14 20:18:59;;;;;;;;;;;8.90;95.90;;;7.83;52.03;96759.34;10491252;28;1968;-71
2022/03/14 20:24:03;;;;;;;;;;;8.90;95.80;;;7.93;51.40;96756.06;10525911;22;2275;-71
2022/03/14 20:29:06;;;;;;;;;;;8.90;95.90;;;7.81;51.60;96763.28;10492964;28;1779;-72
2022/03/14 20:34:09;;;;;;;;;;;8.80;95.90;;;7.75;51.94;96756.16;10484778;28;1988;-71
2022/03/14 20:39:12;;;;;;;;;;;8.80;96.00;;;7.71;52.09;96747.81;10487815;28;1811;-72
2022/03/14 20:44:15;;;;;;;;;;;8.80;96.00;;;7.71;52.77;96760.38;10493333;28;2313;-71
2022/03/14 20:49:19;;;;;;;;;;;8.80;96.20;;;7.54;53.05;96768.25;10494302;28;1844;-72
2022/03/14 20:54:22;;;;;;;;;;;8.70;96.70;;;7.63;53.05;96758.81;10507800;28;1918;-71
2022/03/14 20:59:24;;;;;;;;;;;8.70;96.80;;;7.47;52.68;96752.31;10508843;28;2396;-73
2022/03/14 21:04:28;;;;;;;;;;;8.70;96.60;;;7.53;52.87;96756.72;10524588;28;1665;-71
2022/03/14 21:09:32;;;;;;;;;;;8.60;96.80;;;7.49;52.46;96755.56;10508872;28;1916;-72
2022/03/14 21:14:35;;;;;;;;;;;8.60;96.80;;;7.51;52.80;96758.84;10515201;28;1971;-73
2022/03/14 21:19:38;;;;;;;;;;;8.50;96.80;;;7.35;53.19;96759.47;10495212;28;2023;-72
2022/03/14 21:24:41;;;;;;;;;;;8.50;97.10;;;7.34;53.99;96752.50;10515623;28;1948;-72
2022/03/14 21:29:45;;;;;;;;;;;8.40;97.50;;;7.30;53.63;96751.31;10516252;28;1720;-71
2022/03/14 21:34:48;;;;;;;;;;;8.40;97.60;;;7.15;54.81;96745.59;10503353;28;1911;-72
2022/03/14 21:39:51;;;;;;;;;;;8.30;97.90;;;6.98;55.02;96742.75;10497970;28;1851;-73
2022/03/14 21:44:54;;;;;;;;;;;8.20;98.20;;;6.87;55.45;96740.81;10517173;28;1846;-73
2022/03/14 21:49:58;;;;;;;;;;;8.20;98.60;;;6.97;55.43;96738.44;10515807;28;1926;-73
2022/03/14 21:55:01;;;;;;;;;;;8.00;98.90;;;7.03;55.14;96734.84;10515518;28;1977;-70
2022/03/14 22:00:05;;;;;;;;;;;8.00;99.10;;;6.90;56.10;96730.50;10510004;28;1808;-72
2022/03/14 22:05:09;;;;;;;;;;;8.00;99.20;;;6.90;55.85;96725.16;10506807;28;1841;-71
2022/03/14 22:10:12;;;;;;;;;;;7.90;99.40;;;6.83;56.08;96718.28;10493403;28;1848;-71
2022/03/14 22:15:15;;;;;;;;;;;7.90;99.50;;;6.73;56.47;96718.81;10512447;28;1971;-71
2022/03/14 22:20:22;;;;;;;;;;;;;;;6.66;56.87;96718.09;10514427;28;1780;-72
2022/03/14 22:25:25;;;;;;;;;;;7.60;99.90;;;6.82;56.58;96717.47;10500093;28;1792;-71
2022/03/14 22:30:28;;;;;;;;;;;7.80;99.90;;;6.72;57.11;96711.84;10498586;28;1902;-70
2022/03/14 22:35:31;;;;;;;;;;;7.80;99.90;;;6.49;57.68;96713.38;10514172;28;1921;-73
2022/03/14 22:40:36;;;;;;;;;;;;;;;6.48;58.56;96705.56;10495272;28;1780;-72
2022/03/14 22:45:43;;;;;;;;;;;8.70;99.90;;;6.30;59.04;96703.75;10513886;28;1848;-71
2022/03/14 22:50:47;;;;;;;;;;;;;;;6.18;59.47;96703.69;10496132;28;1799;-73
2022/03/14 22:55:50;;;;;;;;;;;7.50;99.90;;;6.15;59.84;96700.63;10499964;28;1989;-72
2022/03/14 23:00:54;;;;;;;;;;;7.20;99.90;;;6.05;60.30;96695.00;10518080;28;1946;-72
2022/03/14 23:05:59;;;;;;;;;;;7.00;99.90;;;5.96;60.88;96697.94;10501695;28;1944;-71
2022/03/14 23:16:23;;;;;;;;;;;7.00;99.90;;;5.90;61.50;96688.13;10518027;28;1977;-72
2022/03/14 23:21:27;;;;;;;;;;;7.00;99.90;;;5.92;61.95;96691.44;10517989;28;1765;-71
2022/03/14 23:26:34;;;;;;;;;;;7.00;99.90;;;5.87;62.00;96693.94;10495953;28;1827;-71
2022/03/14 23:31:37;;;;;;;;;;;6.90;99.90;;;5.99;62.14;96686.03;10493979;28;1982;-73
2022/03/14 23:36:43;;;;;;;;;;;7.00;99.90;;;5.88;63.08;96682.22;10511483;28;1890;-72
2022/03/14 23:41:46;;;;;;;;;;;7.00;99.90;;;5.90;63.62;96681.97;10518350;28;1817;-73
2022/03/14 23:46:50;;;;;;;;;;;7.00;99.90;;;5.85;64.02;96672.00;10494598;28;2588;-72
2022/03/14 23:51:54;;;;;;;;;;;6.90;99.90;;;5.77;64.18;96658.91;10497535;28;1934;-74
2022/03/14 23:56:58;;;;;;;;;;;6.90;99.90;;;5.79;64.09;96651.53;10507859;28;1979;-73
